Time;durP1;ratioP1;P1;durP2;ratioP2;P2;SDS_P1;SDS_P2;PMS_P1;PMS_P2;Temp;Humidity;BMP_temperature;BMP_pressure;BME280_temperature;BME280_humidity;BME280_pressure;Samples;Min_cycle;Max_cycle;Signal;HPM_P1;HPM_P2
2021/04/30 00:00:11;;;;;;;;;;;;;;;5.57;73.56;98540.94;4995468;28;20276;-81
2021/04/30 00:02:37;;;;;;;;;;;;;;;5.60;72.77;98549.53;4995332;28;20370;-81
2021/04/30 00:05:05;;;;;;;;;;;;;;;5.48;73.49;98542.81;4975568;28;19930;-81
2021/04/30 00:07:31;;;;;;;;;;;;;;;5.36;73.35;98557.59;4977450;28;20366;-81
2021/04/30 00:09:57;;;;;;;;;;;;;;;5.22;73.63;98541.06;5014379;28;19929;-81
2021/04/30 00:12:23;;;;;;;;;;;;;;;5.19;73.71;98544.09;5008558;28;19925;-82
2021/04/30 00:14:49;;;;;;;;;;;;;;;5.17;73.55;98538.03;4994357;28;19934;-82
2021/04/30 00:17:15;;;;;;;;;;;;;;;5.11;73.69;98534.16;4994764;28;19926;-81
2021/04/30 00:19:41;;;;;;;;;;;;;;;4.94;74.59;98545.91;5010468;28;20404;-81
2021/04/30 00:22:08;;;;;;;;;;;;;;;4.82;75.25;98548.06;5014311;28;19926;-81
2021/04/30 00:24:35;;;;;;;;;;;;;;;5.00;74.34;98545.25;4995635;28;20404;-81
2021/04/30 00:27:01;;;;;;;;;;;;;;;5.00;74.45;98544.38;4994632;28;19932;-81
2021/04/30 00:29:27;;;;;;;;;;;;;;;5.06;74.19;98532.94;4984924;28;19926;-81
2021/04/30 00:31:53;;;;;;;;;;;;;;;5.01;73.68;98533.44;5006110;28;20020;-81
2021/04/30 00:34:19;;;;;;;;;;;;;;;4.92;73.90;98537.13;4999286;28;19956;-81
2021/04/30 00:36:45;;;;;;;;;;;;;;;4.82;74.72;98537.28;5008698;28;20300;-81
2021/04/30 00:39:13;;;;;;;;;;;;;;;4.82;74.87;98534.59;5001963;28;19925;-81
2021/04/30 00:41:39;;;;;;;;;;;;;;;4.89;74.27;98542.84;5008128;28;19932;-81
2021/04/30 00:44:05;;;;;;;;;;;;;;;4.85;74.15;98553.13;4997577;28;19925;-81
2021/04/30 00:46:33;;;;;;;;;;;;;;;4.74;74.75;98556.09;5009210;28;20284;-81
2021/04/30 00:49:00;;;;;;;;;;;;;;;4.64;75.01;98560.75;4994280;28;19926;-81
2021/04/30 00:51:26;;;;;;;;;;;;;;;4.51;75.71;98563.91;4997715;28;19948;-81
2021/04/30 00:53:52;;;;;;;;;;;;;;;4.46;76.42;98561.69;4993974;28;19925;-81
2021/04/30 00:56:19;;;;;;;;;;;;;;;4.60;75.74;98561.09;5006672;28;20373;-81
2021/04/30 00:58:45;;;;;;;;;;;;;;;4.59;75.35;98554.03;4992989;28;19925;-81
2021/04/30 01:01:12;;;;;;;;;;;;;;;4.48;75.69;98554.31;4987528;28;19926;-81
2021/04/30 01:03:39;;;;;;;;;;;;;;;4.30;75.72;98557.06;4990282;28;20385;-81
2021/04/30 01:06:05;;;;;;;;;;;;;;;4.15;76.17;98562.19;4993989;28;19926;-81
2021/04/30 01:08:32;;;;;;;;;;;;;;;4.03;76.51;98561.59;4994053;28;20443;-81
2021/04/30 01:10:58;;;;;;;;;;;;;;;3.93;77.38;98565.41;4997919;28;19925;-81
2021/04/30 01:13:25;;;;;;;;;;;;;;;4.03;77.27;98568.84;5002728;28;19926;-81
2021/04/30 01:15:51;;;;;;;;;;;;;;;4.01;77.97;98569.00;4993595;28;20352;-81
2021/04/30 01:18:17;;;;;;;;;;;;;;;4.09;76.75;98573.59;4993952;28;19926;-81
2021/04/30 01:20:43;;;;;;;;;;;;;;;4.25;76.77;98568.31;5004450;28;19937;-81
2021/04/30 01:23:10;;;;;;;;;;;;;;;4.08;76.94;98571.91;4995243;28;20386;-81
2021/04/30 01:25:38;;;;;;;;;;;;;;;4.04;77.29;98567.84;4993725;28;19966;-81
2021/04/30 01:28:04;;;;;;;;;;;;;;;3.90;77.44;98569.28;4979803;28;19926;-81
2021/04/30 01:30:31;;;;;;;;;;;;;;;3.73;78.59;98573.66;5009747;28;19972;-81
2021/04/30 01:32:57;;;;;;;;;;;;;;;3.86;78.61;98589.41;5013270;28;20377;-81
2021/04/30 01:35:24;;;;;;;;;;;;;;;3.97;78.54;98582.91;4986771;28;19925;-81
2021/04/30 01:37:51;;;;;;;;;;;;;;;4.11;78.47;98581.50;4993656;28;19936;-81
2021/04/30 01:40:19;;;;;;;;;;;;;;;4.18;77.85;98580.69;4993865;28;19933;-81
2021/04/30 01:43:19;;;;;;;;;;;;;;;4.19;77.96;98574.31;5011045;28;19949;-81
2021/04/30 01:45:52;;;;;;;;;;;;;;;4.10;78.22;98572.59;5009333;28;19925;-81
2021/04/30 01:48:31;;;;;;;;;;;;;;;3.95;78.90;98574.19;5015289;28;19925;-81
2021/04/30 01:50:58;;;;;;;;;;;;;;;3.96;78.67;98579.41;5001673;28;19930;-81
2021/04/30 01:53:28;;;;;;;;;;;;;;;4.03;78.98;98579.59;5010136;28;19925;-81
2021/04/30 01:55:55;;;;;;;;;;;;;;;4.14;78.57;98575.81;5016590;28;19933;-81
2021/04/30 01:58:21;;;;;;;;;;;;;;;4.20;78.60;98573.34;4997731;28;19937;-81
2021/04/30 02:00:50;;;;;;;;;;;;;;;4.22;78.96;98563.25;4998045;28;19926;-81
2021/04/30 02:03:18;;;;;;;;;;;;;;;4.13;79.29;98572.28;5016819;28;19926;-81
2021/04/30 02:05:44;;;;;;;;;;;;;;;4.07;80.35;98578.28;5001744;28;19929;-80
2021/04/30 02:08:11;;;;;;;;;;;;;;;4.14;79.74;98571.28;4996850;28;19930;-81
2021/04/30 02:10:38;;;;;;;;;;;;;;;4.25;79.51;98575.56;4997637;28;20289;-81
2021/04/30 02:13:11;;;;;;;;;;;;;;;4.32;79.51;98586.50;4996408;28;19930;-81
2021/04/30 02:15:38;;;;;;;;;;;;;;;4.48;78.86;98583.91;4996956;28;20373;-81
2021/04/30 02:18:04;;;;;;;;;;;;;;;4.43;78.72;98576.31;5013850;28;19925;-81
2021/04/30 02:20:48;;;;;;;;;;;;;;;4.46;78.29;98585.06;4996632;28;19937;-81
2021/04/30 02:23:14;;;;;;;;;;;;;;;4.40;78.92;98595.47;4993529;28;19933;-81
2021/04/30 02:25:41;;;;;;;;;;;;;;;4.34;79.32;98595.28;5008834;28;19952;-80
2021/04/30 02:28:08;;;;;;;;;;;;;;;4.34;79.58;98598.81;5006519;28;19933;-81
2021/04/30 02:30:38;;;;;;;;;;;;;;;4.44;79.24;98590.59;4997660;28;19925;-81
2021/04/30 02:33:07;;;;;;;;;;;;;;;4.40;78.83;98591.97;4999986;28;20012;-81
2021/04/30 02:35:35;;;;;;;;;;;;;;;4.28;79.41;98588.69;5012030;28;19979;-81
2021/04/30 02:38:09;;;;;;;;;;;;;;;4.33;79.54;98591.72;4980883;28;20377;-81
2021/04/30 02:40:36;;;;;;;;;;;;;;;4.42;78.81;98590.78;4996934;28;19934;-81
2021/04/30 02:43:06;;;;;;;;;;;;;;;4.38;79.68;98593.94;4995959;28;19933;-81
2021/04/30 02:45:39;;;;;;;;;;;;;;;4.43;78.74;98584.38;4995214;28;19926;-80
2021/04/30 02:48:11;;;;;;;;;;;;;;;4.40;79.04;98589.25;5011635;28;19925;-81
2021/04/30 02:50:37;;;;;;;;;;;;;;;4.29;78.99;98586.81;5013542;28;19925;-81
2021/04/30 02:53:03;;;;;;;;;;;;;;;4.22;79.01;98579.41;5010777;28;19934;-81
2021/04/30 02:55:30;;;;;;;;;;;;;;;4.16;79.34;98576.50;5000692;28;19933;-81
2021/04/30 02:57:57;;;;;;;;;;;;;;;4.10;79.87;98580.66;4995290;28;20013;-81
2021/04/30 03:00:24;;;;;;;;;;;;;;;4.22;79.10;98565.94;5001960;28;19925;-81
2021/04/30 03:02:51;;;;;;;;;;;;;;;4.17;79.49;98570.09;5005439;28;19926;-81
2021/04/30 03:05:17;;;;;;;;;;;;;;;4.14;79.41;98573.09;4994984;28;20451;-81
2021/04/30 03:07:43;;;;;;;;;;;;;;;4.21;79.21;98569.63;4995067;28;19926;-81
2021/04/30 03:10:10;;;;;;;;;;;;;;;4.22;78.82;98574.00;4995351;28;20404;-81
2021/04/30 03:12:39;;;;;;;;;;;;;;;4.05;79.26;98577.59;4994030;28;19976;-81
2021/04/30 03:15:06;;;;;;;;;;;;;;;4.08;79.77;98583.50;4994952;28;19925;-81
2021/04/30 03:17:47;;;;;;;;;;;;;;;4.10;80.02;98590.59;4995210;28;19925;-81
2021/04/30 03:20:14;;;;;;;;;;;;;;;4.17;78.99;98584.41;5013025;28;19933;-81
2021/04/30 03:22:41;;;;;;;;;;;;;;;4.21;78.53;98585.75;5014854;28;20016;-81
2021/04/30 03:25:08;;;;;;;;;;;;;;;4.23;77.97;98582.91;5014409;28;19941;-81
2021/04/30 03:27:35;;;;;;;;;;;;;;;4.18;78.29;98582.56;5014814;28;19930;-81
2021/04/30 03:30:00;;;;;;;;;;;;;;;3.98;79.13;98580.06;5014826;28;20694;-81
2021/04/30 03:32:27;;;;;;;;;;;;;;;3.94;79.89;98588.63;4996821;28;19925;-81
2021/04/30 03:34:53;;;;;;;;;;;;;;;4.00;79.81;98588.81;5013875;28;19929;-81
2021/04/30 03:37:20;;;;;;;;;;;;;;;4.10;79.05;98577.97;5014482;28;19975;-82
2021/04/30 03:39:46;;;;;;;;;;;;;;;3.98;79.85;98577.38;5014168;28;19925;-82
2021/04/30 03:42:12;;;;;;;;;;;;;;;4.01;79.29;98585.13;5014291;28;19932;-81
2021/04/30 03:44:38;;;;;;;;;;;;;;;3.89;79.89;98586.41;5005931;28;19933;-82
2021/04/30 03:47:04;;;;;;;;;;;;;;;3.94;79.96;98584.06;4994088;28;20370;-81
2021/04/30 03:49:30;;;;;;;;;;;;;;;3.84;80.26;98575.25;4985826;28;20381;-82
2021/04/30 03:51:56;;;;;;;;;;;;;;;3.81;80.63;98578.25;4973592;28;19926;-82
2021/04/30 03:54:23;;;;;;;;;;;;;;;3.75;81.12;98573.50;5004810;28;20369;-81
2021/04/30 03:56:49;;;;;;;;;;;;;;;3.79;81.33;98564.97;4996826;28;19925;-81
2021/04/30 03:59:16;;;;;;;;;;;;;;;3.85;82.02;98574.25;4999893;28;19930;-82
2021/04/30 04:01:42;;;;;;;;;;;;;;;3.87;81.68;98577.66;4994199;28;19926;-81
2021/04/30 04:04:08;;;;;;;;;;;;;;;4.01;81.73;98574.38;5010952;28;19965;-81
2021/04/30 04:06:34;;;;;;;;;;;;;;;4.11;80.59;98573.44;4994235;28;19949;-82
2021/04/30 04:09:00;;;;;;;;;;;;;;;4.12;80.77;98583.19;4994285;28;19925;-81
2021/04/30 04:11:27;;;;;;;;;;;;;;;4.20;80.54;98570.66;4992856;28;19930;-81
2021/04/30 04:13:53;;;;;;;;;;;;;;;4.08;80.49;98572.75;4994512;28;19925;-81
2021/04/30 04:16:19;;;;;;;;;;;;;;;4.09;80.70;98581.66;4993340;28;19972;-80
2021/04/30 04:18:45;;;;;;;;;;;;;;;4.01;79.61;98570.84;4994030;28;20080;-81
2021/04/30 04:21:12;;;;;;;;;;;;;;;4.10;79.89;98567.22;4994018;28;19930;-82
2021/04/30 04:23:38;;;;;;;;;;;;;;;4.13;80.44;98566.91;4993514;28;20381;-83
2021/04/30 04:26:07;;;;;;;;;;;;;;;4.01;80.65;98574.38;5008570;28;19926;-86
2021/04/30 04:28:48;;;;;;;;;;;;;;;4.08;80.21;98575.44;4992368;28;19984;-86
2021/04/30 04:31:14;;;;;;;;;;;;;;;4.13;80.29;98572.28;4975170;28;20009;-86
2021/04/30 04:33:40;;;;;;;;;;;;;;;4.17;80.90;98580.84;4993551;28;19938;-86
2021/04/30 04:36:08;;;;;;;;;;;;;;;4.18;80.85;98579.88;4977207;28;19926;-85
2021/04/30 04:38:34;;;;;;;;;;;;;;;4.26;81.07;98577.25;5011439;28;19925;-86
2021/04/30 04:41:03;;;;;;;;;;;;;;;4.24;80.92;98581.94;5011785;28;19926;-85
2021/04/30 04:43:32;;;;;;;;;;;;;;;4.36;80.28;98577.94;4999331;28;19933;-85
2021/04/30 04:45:59;;;;;;;;;;;;;;;4.46;79.52;98577.00;4993489;28;20396;-85
2021/04/30 04:48:25;;;;;;;;;;;;;;;4.39;78.33;98579.50;5010715;28;19930;-85
2021/04/30 04:50:51;;;;;;;;;;;;;;;4.26;79.02;98588.00;5004413;28;20393;-85
2021/04/30 04:53:18;;;;;;;;;;;;;;;4.20;79.04;98589.47;4994491;28;19945;-86
2021/04/30 04:55:44;;;;;;;;;;;;;;;4.40;78.60;98592.78;4992134;28;19933;-86
2021/04/30 04:58:13;;;;;;;;;;;;;;;4.32;78.46;98598.13;4983937;28;19926;-86
2021/04/30 05:00:39;;;;;;;;;;;;;;;4.38;78.58;98588.56;4974917;28;19926;-85
2021/04/30 05:03:12;;;;;;;;;;;;;;;4.47;78.68;98594.84;4994436;28;19949;-86
2021/04/30 05:05:38;;;;;;;;;;;;;;;4.57;78.18;98596.41;4979629;28;20385;-86
2021/04/30 05:08:05;;;;;;;;;;;;;;;4.71;78.18;98594.97;4999776;28;19925;-86
2021/04/30 05:10:31;;;;;;;;;;;;;;;4.67;77.57;98603.53;4985290;28;19934;-85
2021/04/30 05:12:57;;;;;;;;;;;;;;;4.72;77.10;98602.03;4998964;28;19930;-86
2021/04/30 05:15:23;;;;;;;;;;;;;;;4.59;77.30;98604.31;5003459;28;20036;-85
2021/04/30 05:17:49;;;;;;;;;;;;;;;4.65;77.68;98610.91;5004201;28;19929;-85
2021/04/30 05:20:16;;;;;;;;;;;;;;;4.78;76.94;98609.47;4998646;28;19945;-84
2021/04/30 05:22:43;;;;;;;;;;;;;;;4.82;77.42;98599.22;4988345;28;19933;-83
2021/04/30 05:25:18;;;;;;;;;;;;;;;4.84;77.62;98601.75;4995987;28;19930;-83
2021/04/30 05:27:46;;;;;;;;;;;;;;;4.79;77.74;98608.47;4995110;28;19962;-83
2021/04/30 05:30:15;;;;;;;;;;;;;;;4.82;77.95;98609.13;5013762;28;19925;-83
2021/04/30 05:32:53;;;;;;;;;;;;;;;4.83;77.91;98610.84;4998191;28;19929;-83
2021/04/30 05:35:30;;;;;;;;;;;;;;;4.93;77.32;98615.09;4994195;28;20314;-83
2021/04/30 05:37:56;;;;;;;;;;;;;;;5.03;76.84;98612.28;5000001;28;20012;-83
2021/04/30 05:40:23;;;;;;;;;;;;;;;5.08;77.20;98603.69;4988649;28;19933;-82
2021/04/30 05:42:52;;;;;;;;;;;;;;;5.08;76.98;98590.22;4997347;28;19934;-82
2021/04/30 05:45:18;;;;;;;;;;;;;;;5.08;76.83;98592.91;4982648;28;20361;-83
2021/04/30 05:47:47;;;;;;;;;;;;;;;5.15;76.01;98596.66;5000865;28;19996;-83
2021/04/30 05:50:14;;;;;;;;;;;;;;;5.31;75.60;98598.53;4979375;28;19930;-83
2021/04/30 05:52:41;;;;;;;;;;;;;;;5.48;75.24;98602.13;5004836;28;19980;-83
2021/04/30 05:55:09;;;;;;;;;;;;;;;5.59;75.78;98590.16;4993868;28;19926;-83
2021/04/30 05:58:29;;;;;;;;;;;;;;;;;;;;;
2021/04/30 06:00:58;;;;;;;;;;;;;;;5.60;74.83;98590.00;4983152;28;20305;-83
2021/04/30 06:03:25;;;;;;;;;;;;;;;5.67;75.14;98577.53;5012139;28;19925;-84
2021/04/30 06:17:50;;;;;;;;;;;;;;;7.35;68.82;98565.09;4836208;29;20021;-83
2021/04/30 06:20:23;;;;;;;;;;;;;;;7.44;68.61;98555.91;4927902;28;19930;-83
2021/04/30 07:17:50;;;;;;;;;;;;;;;7.59;63.11;98551.38;4959371;28;20044;-83
2021/04/30 07:20:23;;;;;;;;;;;;;;;7.34;64.24;98548.00;4988555;28;19953;-84
2021/04/30 07:22:58;;;;;;;;;;;;;;;7.51;64.75;98556.00;4992476;28;19933;-84
2021/04/30 07:31:14;;;;;;;;;;;;;;;7.55;63.52;98543.81;4913133;29;19938;-84
2021/04/30 07:33:46;;;;;;;;;;;;;;;7.55;64.49;98536.53;4967971;28;19926;-84
2021/04/30 07:36:12;;;;;;;;;;;;;;;7.67;63.63;98538.81;4984517;28;19929;-85
2021/04/30 07:38:38;;;;;;;;;;;;;;;7.87;63.42;98531.03;4991921;28;19926;-85
2021/04/30 07:41:04;;;;;;;;;;;;;;;7.90;62.69;98528.81;4992916;28;20266;-85
2021/04/30 07:43:30;;;;;;;;;;;;;;;7.87;62.66;98536.44;4992114;28;19933;-84
2021/04/30 07:45:59;;;;;;;;;;;;;;;7.66;63.88;98532.53;4990915;28;20289;-84
2021/04/30 07:48:25;;;;;;;;;;;;;;;7.74;63.76;98532.50;4983004;28;20041;-84
2021/04/30 07:50:52;;;;;;;;;;;;;;;7.71;63.78;98524.75;4992013;28;20413;-84
2021/04/30 07:53:18;;;;;;;;;;;;;;;7.94;63.29;98527.41;4991711;28;19929;-83
2021/04/30 07:55:44;;;;;;;;;;;;;;;7.91;62.46;98518.81;4980042;28;19971;-83
2021/04/30 07:58:11;;;;;;;;;;;;;;;7.93;62.86;98516.75;4981832;28;20393;-83
2021/04/30 08:00:37;;;;;;;;;;;;;;;7.93;62.50;98511.34;4979877;28;19933;-82
2021/04/30 08:03:03;;;;;;;;;;;;;;;8.08;61.91;98523.03;4991869;28;19925;-83
2021/04/30 08:05:29;;;;;;;;;;;;;;;8.18;60.93;98540.91;4985630;28;19930;-82
2021/04/30 08:07:59;;;;;;;;;;;;;;;8.04;60.71;98543.41;4983845;28;20312;-83
2021/04/30 08:10:27;;;;;;;;;;;;;;;7.98;60.43;98544.97;4993287;28;19932;-83
2021/04/30 08:12:53;;;;;;;;;;;;;;;8.13;60.04;98545.00;4993402;28;20053;-82
2021/04/30 08:15:19;;;;;;;;;;;;;;;7.93;60.99;98541.13;4992875;28;19968;-82
2021/04/30 08:17:45;;;;;;;;;;;;;;;8.00;60.92;98549.38;4989838;28;19930;-83
2021/04/30 08:20:11;;;;;;;;;;;;;;;8.09;61.16;98556.38;4990652;28;19929;-82
2021/04/30 08:22:38;;;;;;;;;;;;;;;8.14;60.74;98553.94;4990995;28;19926;-82
2021/04/30 08:25:06;;;;;;;;;;;;;;;8.01;62.01;98556.44;4991302;28;19933;-82
2021/04/30 08:27:47;;;;;;;;;;;;;;;7.92;62.27;98558.41;4991140;28;19932;-83
2021/04/30 08:30:14;;;;;;;;;;;;;;;7.98;61.64;98561.19;4991770;28;19925;-83
2021/04/30 08:32:40;;;;;;;;;;;;;;;7.79;62.53;98575.25;4991652;28;19926;-83
2021/04/30 08:35:06;;;;;;;;;;;;;;;7.72;62.83;98575.13;4990013;28;20014;-82
2021/04/30 08:37:33;;;;;;;;;;;;;;;7.70;62.71;98581.75;4991611;28;19932;-82
2021/04/30 08:40:00;;;;;;;;;;;;;;;7.63;63.52;98576.19;4991344;28;19926;-82
2021/04/30 08:42:28;;;;;;;;;;;;;;;7.70;63.06;98560.09;4992008;28;20290;-82
2021/04/30 08:44:55;;;;;;;;;;;;;;;7.69;63.34;98551.13;4989922;28;19925;-82
2021/04/30 08:47:21;;;;;;;;;;;;;;;7.84;63.53;98544.91;4991340;28;19929;-82
2021/04/30 08:49:55;;;;;;;;;;;;;;;7.95;63.48;98542.63;4987509;28;19926;-82
2021/04/30 08:52:21;;;;;;;;;;;;;;;7.94;62.98;98546.34;4991346;28;19926;-82
2021/04/30 08:54:55;;;;;;;;;;;;;;;7.83;63.50;98530.56;4990902;28;19980;-82
2021/04/30 08:57:24;;;;;;;;;;;;;;;7.86;65.06;98523.91;4989492;28;19926;-83
2021/04/30 08:59:59;;;;;;;;;;;;;;;8.01;64.20;98516.69;4991400;28;20364;-82
2021/04/30 09:02:28;;;;;;;;;;;;;;;7.94;65.82;98526.56;4990305;28;20463;-82
2021/04/30 09:04:54;;;;;;;;;;;;;;;8.09;65.32;98543.66;4984637;28;19941;-82
2021/04/30 09:07:24;;;;;;;;;;;;;;;8.14;65.19;98557.50;4982135;28;19937;-82
2021/04/30 09:09:57;;;;;;;;;;;;;;;8.13;64.63;98547.69;4992010;28;20439;-82
2021/04/30 09:12:23;;;;;;;;;;;;;;;8.00;65.46;98558.31;4990092;28;21160;-83
2021/04/30 09:14:50;;;;;;;;;;;;;;;7.90;64.84;98563.13;4990453;28;19930;-83
2021/04/30 09:17:17;;;;;;;;;;;;;;;7.90;64.68;98553.16;4990740;28;19926;-82
2021/04/30 09:31:57;;;;;;;;;;;;;;;7.74;65.13;98567.66;4936246;28;19932;-83
2021/04/30 09:34:37;;;;;;;;;;;;;;;7.78;65.59;98570.84;4990506;28;20401;-83
2021/04/30 09:37:55;;;;;;;;;;;;;;;;;;;;;
2021/04/30 09:49:57;;;;;;;;;;;;;;;7.85;64.97;98555.56;4869791;29;20014;-84
2021/04/30 09:52:29;;;;;;;;;;;;;;;7.91;64.98;98540.47;4900894;29;20298;-84
2021/04/30 09:55:05;;;;;;;;;;;;;;;7.70;65.14;98525.75;4946053;28;19930;-84
2021/04/30 09:57:37;;;;;;;;;;;;;;;7.94;65.44;98537.38;4990426;28;19957;-83
2021/04/30 10:00:10;;;;;;;;;;;;;;;7.72;64.58;98545.38;4990984;28;19926;-84
2021/04/30 10:02:49;;;;;;;;;;;;;;;7.77;65.21;98542.94;4990797;28;19925;-81
2021/04/30 10:08:21;;;;;;;;;;;;;;;7.63;64.47;98549.13;4955511;28;20035;-84
2021/04/30 10:10:47;;;;;;;;;;;;;;;7.78;65.14;98551.91;4994421;28;19926;-82
2021/04/30 10:13:15;;;;;;;;;;;;;;;7.78;65.81;98555.47;4984836;28;20293;-84
2021/04/30 10:15:52;;;;;;;;;;;;;;;7.73;64.87;98559.72;4994880;28;20028;-86
2021/04/30 10:18:18;;;;;;;;;;;;;;;7.57;65.94;98549.88;4994196;28;19925;-86
2021/04/30 10:20:44;;;;;;;;;;;;;;;7.68;65.18;98546.75;4994544;28;19948;-86
2021/04/30 10:23:14;;;;;;;;;;;;;;;7.70;65.90;98542.00;4994522;28;19968;-85
2021/04/30 10:25:43;;;;;;;;;;;;;;;7.49;65.40;98541.81;4994399;28;20012;-86
2021/04/30 10:28:10;;;;;;;;;;;;;;;7.51;65.52;98550.59;4995578;28;20331;-87
2021/04/30 10:30:41;;;;;;;;;;;;;;;7.51;66.22;98540.63;4994924;28;20385;-86
2021/04/30 10:33:17;;;;;;;;;;;;;;;7.57;66.42;98539.03;4994025;28;19932;-87
2021/04/30 10:35:50;;;;;;;;;;;;;;;7.60;67.07;98546.78;4989954;28;19972;-87
2021/04/30 10:38:28;;;;;;;;;;;;;;;7.37;68.54;98549.50;4994786;28;19957;-88
2021/04/30 10:41:06;;;;;;;;;;;;;;;7.44;67.50;98554.03;4995797;28;19926;-87
2021/04/30 10:43:35;;;;;;;;;;;;;;;7.34;69.04;98547.16;4996557;28;19929;-87
2021/04/30 10:46:21;;;;;;;;;;;;;;;7.36;70.16;98554.09;4985004;28;20013;-86
2021/04/30 10:49:06;;;;;;;;;;;;;;;7.52;70.77;98557.69;4983779;28;19932;-86
2021/04/30 10:51:32;;;;;;;;;;;;;;;7.46;71.67;98561.94;4992492;28;19937;-86
2021/04/30 10:54:22;;;;;;;;;;;;;;;7.49;71.39;98568.88;4994170;28;20321;-86
2021/04/30 10:56:58;;;;;;;;;;;;;;;7.66;70.66;98575.00;4990892;28;20380;-86
2021/04/30 10:59:28;;;;;;;;;;;;;;;7.50;68.94;98579.50;4994111;28;20396;-86
2021/04/30 11:02:01;;;;;;;;;;;;;;;7.43;72.14;98579.38;4993083;28;19926;-86
2021/04/30 11:04:27;;;;;;;;;;;;;;;7.46;69.28;98585.47;4993036;28;19976;-86
2021/04/30 11:06:54;;;;;;;;;;;;;;;7.34;69.34;98587.72;4991245;28;19933;-86
2021/04/30 11:09:29;;;;;;;;;;;;;;;7.11;70.15;98585.81;4985827;28;20032;-86
2021/04/30 11:11:55;;;;;;;;;;;;;;;7.18;69.92;98589.50;4992953;28;19926;-86
2021/04/30 11:14:23;;;;;;;;;;;;;;;7.16;71.26;98588.00;4992706;28;19926;-86
2021/04/30 11:16:53;;;;;;;;;;;;;;;7.15;74.07;98606.09;4993964;28;19930;-88
2021/04/30 11:19:27;;;;;;;;;;;;;;;7.23;73.64;98599.78;4994658;28;19926;-87
2021/04/30 11:21:54;;;;;;;;;;;;;;;7.21;73.19;98613.50;4993771;28;19930;-86
2021/04/30 11:24:36;;;;;;;;;;;;;;;7.26;71.82;98597.56;4991886;28;20036;-86
2021/04/30 11:27:31;;;;;;;;;;;;;;;7.26;71.10;98608.38;4993665;28;20023;-85
2021/04/30 11:30:15;;;;;;;;;;;;;;;7.13;72.62;98605.41;4992018;28;20033;-85
2021/04/30 11:32:43;;;;;;;;;;;;;;;6.94;73.04;98609.38;4993458;28;19926;-85
2021/04/30 11:35:15;;;;;;;;;;;;;;;6.87;72.40;98606.53;4989750;28;19929;-86
2021/04/30 11:37:43;;;;;;;;;;;;;;;7.06;72.80;98609.81;4993508;28;20474;-86
2021/04/30 11:40:14;;;;;;;;;;;;;;;6.84;72.24;98611.44;4993418;28;20354;-86
2021/04/30 11:42:40;;;;;;;;;;;;;;;6.85;71.54;98619.38;4993619;28;19930;-86
2021/04/30 11:45:09;;;;;;;;;;;;;;;6.96;75.75;98620.84;4991758;28;20325;-86
2021/04/30 11:47:36;;;;;;;;;;;;;;;6.96;76.09;98628.97;4995777;28;19936;-85
2021/04/30 11:50:15;;;;;;;;;;;;;;;7.07;76.04;98631.28;4992071;28;19952;-86
2021/04/30 11:52:47;;;;;;;;;;;;;;;7.08;74.02;98622.16;4993128;28;19948;-85
2021/04/30 11:58:20;;;;;;;;;;;;;;;6.97;74.25;98629.78;4953387;28;19937;-85
2021/04/30 12:00:50;;;;;;;;;;;;;;;6.95;77.80;98632.69;4992795;28;19934;-86
2021/04/30 12:03:16;;;;;;;;;;;;;;;6.88;78.01;98632.53;4990266;28;19926;-86
2021/04/30 12:05:51;;;;;;;;;;;;;;;6.70;77.17;98631.94;4992410;28;19953;-85
2021/04/30 12:08:19;;;;;;;;;;;;;;;6.77;78.15;98634.78;4990886;28;19933;-86
2021/04/30 12:10:46;;;;;;;;;;;;;;;6.62;79.60;98630.06;4992602;28;19933;-86
2021/04/30 12:13:20;;;;;;;;;;;;;;;6.61;78.70;98635.66;4991791;28;19926;-85
2021/04/30 12:15:46;;;;;;;;;;;;;;;6.50;78.51;98642.25;4991912;28;19926;-86
2021/04/30 12:18:12;;;;;;;;;;;;;;;6.41;78.45;98644.13;4989541;28;19932;-85
2021/04/30 12:20:41;;;;;;;;;;;;;;;6.22;78.56;98639.94;4989715;28;19926;-84
2021/04/30 12:23:09;;;;;;;;;;;;;;;6.18;78.52;98634.03;4992333;28;19926;-84
2021/04/30 12:25:43;;;;;;;;;;;;;;;6.23;80.29;98633.50;4989452;28;19930;-84
2021/04/30 12:28:28;;;;;;;;;;;;;;;6.22;81.01;98631.84;4992674;28;19925;-82
2021/04/30 12:30:55;;;;;;;;;;;;;;;6.32;80.13;98626.25;4991471;28;20489;-83
2021/04/30 12:33:35;;;;;;;;;;;;;;;6.35;79.75;98636.72;4991903;28;19925;-83
2021/04/30 12:36:07;;;;;;;;;;;;;;;6.27;79.66;98621.38;4990372;28;19933;-85
2021/04/30 12:38:42;;;;;;;;;;;;;;;6.23;80.27;98619.19;4991999;28;19933;-85
2021/04/30 12:41:13;;;;;;;;;;;;;;;6.29;79.35;98632.00;4991632;28;19926;-85
2021/04/30 12:43:43;;;;;;;;;;;;;;;6.26;79.94;98632.34;4993726;28;19930;-85
2021/04/30 12:46:10;;;;;;;;;;;;;;;6.16;80.71;98635.22;4991254;28;20211;-86
2021/04/30 12:48:41;;;;;;;;;;;;;;;6.32;79.62;98626.25;4992412;28;20024;-85
2021/04/30 12:51:09;;;;;;;;;;;;;;;6.19;79.65;98624.91;4986750;28;19932;-85
2021/04/30 12:53:40;;;;;;;;;;;;;;;6.48;80.60;98631.63;4993408;28;19929;-85
2021/04/30 12:56:09;;;;;;;;;;;;;;;6.27;79.85;98625.94;4993173;28;19933;-85
2021/04/30 12:58:40;;;;;;;;;;;;;;;6.39;79.78;98632.66;4993944;28;19976;-84
2021/04/30 13:01:12;;;;;;;;;;;;;;;6.50;78.90;98624.22;4991575;28;19926;-85
2021/04/30 13:03:44;;;;;;;;;;;;;;;6.53;78.57;98633.81;4993984;28;20017;-84
2021/04/30 13:06:11;;;;;;;;;;;;;;;6.65;79.36;98629.72;4989676;28;19926;-85
2021/04/30 13:08:41;;;;;;;;;;;;;;;6.80;80.73;98629.84;4987092;28;19964;-86
2021/04/30 13:11:13;;;;;;;;;;;;;;;7.00;78.03;98635.72;4985841;28;19938;-86
2021/04/30 13:13:57;;;;;;;;;;;;;;;6.76;77.23;98633.94;4991529;28;19964;-86
2021/04/30 13:16:35;;;;;;;;;;;;;;;6.68;77.84;98634.78;4990712;28;19933;-85
2021/04/30 13:19:08;;;;;;;;;;;;;;;6.74;80.22;98641.34;4991829;28;19934;-85
2021/04/30 13:21:35;;;;;;;;;;;;;;;6.51;78.86;98642.09;4990345;28;19926;-85
2021/04/30 13:24:23;;;;;;;;;;;;;;;6.58;81.03;98631.47;4989981;28;19942;-84
2021/04/30 13:27:07;;;;;;;;;;;;;;;6.84;78.65;98635.78;4989204;28;19930;-84
2021/04/30 13:29:42;;;;;;;;;;;;;;;6.63;78.81;98626.38;4991254;28;19925;-83
2021/04/30 13:32:10;;;;;;;;;;;;;;;6.69;78.60;98627.53;4990716;28;20345;-85
2021/04/30 13:34:44;;;;;;;;;;;;;;;6.58;79.32;98622.50;4990518;28;19929;-84
2021/04/30 13:37:13;;;;;;;;;;;;;;;6.79;76.78;98624.63;4973699;28;20373;-85
2021/04/30 13:39:43;;;;;;;;;;;;;;;6.84;78.97;98625.78;4991586;28;19925;-86
2021/04/30 13:42:44;;;;;;;;;;;;;;;6.83;79.98;98623.28;4993109;28;20013;-87
2021/04/30 13:45:23;;;;;;;;;;;;;;;6.62;78.43;98613.03;4995253;28;19933;-86
2021/04/30 13:47:50;;;;;;;;;;;;;;;6.84;80.11;98619.56;4989353;28;19926;-82
2021/04/30 13:50:21;;;;;;;;;;;;;;;6.95;78.20;98615.63;4992541;28;19948;-81
2021/04/30 13:52:47;;;;;;;;;;;;;;;6.73;77.14;98616.22;4993985;28;19926;-82
2021/04/30 13:55:13;;;;;;;;;;;;;;;6.75;77.70;98613.34;4993393;28;19936;-82
2021/04/30 13:57:39;;;;;;;;;;;;;;;6.81;77.80;98620.75;4994433;28;19933;-81
2021/04/30 14:00:06;;;;;;;;;;;;;;;6.58;78.21;98609.84;4993331;28;19930;-81
2021/04/30 14:02:33;;;;;;;;;;;;;;;6.74;77.70;98608.94;4994218;28;20114;-81
2021/04/30 14:04:59;;;;;;;;;;;;;;;6.55;79.55;98604.78;4992666;28;19933;-81
2021/04/30 14:07:25;;;;;;;;;;;;;;;6.59;80.48;98603.41;4993525;28;20437;-81
2021/04/30 14:09:52;;;;;;;;;;;;;;;6.68;79.16;98604.22;4994083;28;19933;-81
2021/04/30 14:12:18;;;;;;;;;;;;;;;6.61;79.13;98601.41;4975126;28;20037;-81
2021/04/30 14:14:44;;;;;;;;;;;;;;;6.60;79.16;98607.81;4992004;28;19980;-81
2021/04/30 14:17:10;;;;;;;;;;;;;;;6.53;78.98;98604.97;4981534;28;19926;-81
2021/04/30 14:19:37;;;;;;;;;;;;;;;6.56;78.83;98603.75;5000435;28;19936;-81
2021/04/30 14:22:03;;;;;;;;;;;;;;;6.73;79.62;98607.28;4994224;28;19930;-81
2021/04/30 14:24:34;;;;;;;;;;;;;;;6.75;78.75;98607.09;4993389;28;19933;-81
2021/04/30 14:27:00;;;;;;;;;;;;;;;6.53;79.06;98613.06;4993493;28;20451;-81
2021/04/30 14:29:26;;;;;;;;;;;;;;;6.86;77.58;98601.31;4995749;28;20328;-81
2021/04/30 14:31:52;;;;;;;;;;;;;;;6.91;75.65;98615.16;5012945;28;19929;-81
2021/04/30 14:34:18;;;;;;;;;;;;;;;6.89;78.38;98609.06;4989448;28;19972;-82
2021/04/30 14:36:46;;;;;;;;;;;;;;;6.96;76.86;98615.44;4990376;28;19926;-81
2021/04/30 14:39:13;;;;;;;;;;;;;;;7.03;79.50;98605.63;4994550;28;20008;-81
2021/04/30 14:41:39;;;;;;;;;;;;;;;7.09;76.21;98602.22;4993844;28;19938;-81
2021/04/30 14:44:05;;;;;;;;;;;;;;;7.13;78.76;98600.00;4989269;28;20025;-81
2021/04/30 14:46:31;;;;;;;;;;;;;;;6.96;78.22;98601.13;4993660;28;19930;-82
2021/04/30 14:48:57;;;;;;;;;;;;;;;6.96;76.36;98591.13;4991139;28;19933;-81
2021/04/30 14:51:23;;;;;;;;;;;;;;;6.84;77.95;98598.78;4990865;28;20348;-82